Time;durP1;ratioP1;P1;durP2;ratioP2;P2;SDS_P1;SDS_P2;PMS_P1;PMS_P2;Temp;Humidity;BMP_temperature;BMP_pressure;BME280_temperature;BME280_humidity;BME280_pressure;Samples;Min_cycle;Max_cycle;Signal;HPM_P1;HPM_P2
2022/05/07 00:00:51;;;;;;;34.33;12.10;;;17.60;88.50;;;;;;5042395;28;20511;-62
2022/05/07 00:03:16;;;;;;;30.95;12.20;;;17.60;88.50;;;;;;5042214;28;20302;-61
2022/05/07 00:05:41;;;;;;;39.70;13.02;;;17.60;88.60;;;;;;5026682;28;20032;-63
2022/05/07 00:08:07;;;;;;;33.55;11.75;;;17.60;88.60;;;;;;5011531;28;20060;-63
2022/05/07 00:10:33;;;;;;;28.00;11.95;;;17.60;88.70;;;;;;5042624;28;20527;-62
2022/05/07 00:12:58;;;;;;;31.15;12.00;;;17.60;88.70;;;;;;5045689;28;20050;-61
2022/05/07 00:15:24;;;;;;;25.83;12.40;;;17.60;88.80;;;;;;5042311;28;20056;-62
2022/05/07 00:18:01;;;;;;;33.35;11.95;;;17.60;88.80;;;;;;5042882;28;20025;-61
2022/05/07 00:20:27;;;;;;;29.90;11.30;;;17.60;88.90;;;;;;5040081;28;20025;-61
2022/05/07 00:22:56;;;;;;;33.22;11.98;;;17.60;88.90;;;;;;5043310;28;20396;-62
2022/05/07 00:25:22;;;;;;;32.17;11.10;;;17.50;89.00;;;;;;5042515;28;20029;-60
2022/05/07 00:27:48;;;;;;;30.48;12.10;;;17.50;89.00;;;;;;5041133;28;20033;-62
2022/05/07 00:30:13;;;;;;;32.15;11.73;;;17.50;89.00;;;;;;5039291;28;20560;-63
2022/05/07 00:32:39;;;;;;;27.02;12.70;;;17.50;89.00;;;;;;5043003;28;20039;-63
2022/05/07 00:35:04;;;;;;;24.02;13.02;;;17.50;89.10;;;;;;5043167;28;20037;-63
2022/05/07 00:37:30;;;;;;;38.53;12.95;;;17.50;89.10;;;;;;5044486;28;20031;-62
2022/05/07 00:39:56;;;;;;;28.13;11.07;;;17.50;89.20;;;;;;5024337;28;20457;-61
2022/05/07 00:42:21;;;;;;;24.70;11.82;;;17.50;89.10;;;;;;5041622;28;20045;-63
2022/05/07 00:44:47;;;;;;;33.22;11.63;;;17.60;89.30;;;;;;5040300;28;20040;-63
2022/05/07 00:47:28;;;;;;;29.52;12.25;;;17.50;89.20;;;;;;5042821;28;20045;-63
2022/05/07 00:52:43;;;;;;;25.67;13.40;;;17.40;89.30;;;;;;5028965;28;20151;-61
2022/05/07 00:55:10;;;;;;;29.48;14.35;;;17.40;89.50;;;;;;5022553;28;20428;-62
2022/05/07 00:57:35;;;;;;;26.85;14.20;;;17.40;89.40;;;;;;5024613;28;20503;-63
2022/05/07 01:00:03;;;;;;;20.20;11.70;;;17.40;89.50;;;;;;5009482;28;20025;-61
2022/05/07 01:02:28;;;;;;;28.35;12.00;;;17.40;90.00;;;;;;5040705;28;20029;-62
2022/05/07 01:04:54;;;;;;;23.88;11.82;;;17.40;89.50;;;;;;5023929;28;20420;-60
2022/05/07 01:07:20;;;;;;;24.13;11.27;;;17.30;89.50;;;;;;5039117;28;20033;-63
2022/05/07 01:09:46;;;;;;;20.27;11.15;;;17.40;89.60;;;;;;5042938;28;20041;-61
2022/05/07 01:12:11;;;;;;;17.88;11.10;;;17.30;89.70;;;;;;5025760;28;20532;-63
2022/05/07 01:14:37;;;;;;;26.70;11.32;;;17.40;89.70;;;;;;5041368;28;20033;-63
2022/05/07 01:17:06;;;;;;;24.77;11.30;;;17.30;89.60;;;;;;5043936;28;20119;-63
2022/05/07 01:19:31;;;;;;;21.67;11.10;;;17.30;89.60;;;;;;5024319;28;20067;-63
2022/05/07 01:21:57;;;;;;;23.33;11.35;;;17.30;89.70;;;;;;5024265;28;20053;-62
2022/05/07 01:24:23;;;;;;;20.48;11.85;;;17.30;89.70;;;;;;5040899;28;20059;-62
2022/05/07 01:26:48;;;;;;;20.67;10.38;;;17.40;89.70;;;;;;5026172;28;20104;-61
2022/05/07 01:29:14;;;;;;;22.10;11.00;;;17.30;89.60;;;;;;5038536;28;20040;-62
2022/05/07 01:31:39;;;;;;;27.67;11.18;;;17.30;89.60;;;;;;5022255;28;20128;-60
2022/05/07 01:34:05;;;;;;;26.23;11.75;;;17.30;89.70;;;;;;5041419;28;20127;-61
2022/05/07 01:36:30;;;;;;;21.55;10.88;;;17.30;89.80;;;;;;5025104;28;20029;-63
2022/05/07 01:38:56;;;;;;;26.77;10.88;;;17.30;89.90;;;;;;5040902;28;20501;-61
2022/05/07 01:41:21;;;;;;;18.75;10.65;;;17.30;90.00;;;;;;5037955;28;20132;-62
2022/05/07 01:43:47;;;;;;;18.58;10.13;;;17.30;90.00;;;;;;5039553;28;20035;-62
2022/05/07 01:48:57;;;;;;;23.73;10.80;;;17.20;90.00;;;;;;5041239;28;20116;-62
2022/05/07 01:51:22;;;;;;;21.05;11.88;;;17.20;90.00;;;;;;5024479;28;20128;-62
2022/05/07 01:53:48;;;;;;;24.80;13.23;;;17.20;90.00;;;;;;5041722;28;20096;-63
2022/05/07 01:56:13;;;;;;;19.60;13.77;;;17.20;90.10;;;;;;5041423;28;20036;-63
2022/05/07 01:58:39;;;;;;;24.95;13.15;;;17.20;90.10;;;;;;5040866;28;20100;-62
2022/05/07 02:01:04;;;;;;;25.17;11.77;;;17.10;90.10;;;;;;5037971;28;20068;-63
2022/05/07 02:03:30;;;;;;;22.92;11.13;;;17.20;90.10;;;;;;5024730;28;20118;-61
2022/05/07 02:05:56;;;;;;;16.35;11.82;;;17.10;90.10;;;;;;5039758;28;20090;-60
2022/05/07 02:08:21;;;;;;;17.48;11.38;;;17.10;90.10;;;;;;5038703;28;20025;-61
2022/05/07 02:10:47;;;;;;;21.27;12.45;;;17.10;90.10;;;;;;5039547;28;20560;-62
2022/05/07 02:13:12;;;;;;;21.40;11.10;;;17.10;90.10;;;;;;5037668;28;20415;-62
2022/05/07 02:15:38;;;;;;;20.42;10.55;;;17.10;90.20;;;;;;5040621;28;20029;-62
2022/05/07 02:18:03;;;;;;;20.17;10.68;;;17.10;90.20;;;;;;5039765;28;20045;-60
2022/05/07 02:20:29;;;;;;;18.17;10.38;;;17.10;90.10;;;;;;5022844;28;20134;-61
2022/05/07 02:22:57;;;;;;;11.98;9.45;;;17.10;90.10;;;;;;5040454;28;20025;-63
2022/05/07 02:25:23;;;;;;;21.63;10.27;;;17.10;90.10;;;;;;5022270;28;20029;-63
2022/05/07 02:27:49;;;;;;;17.80;9.93;;;17.10;90.20;;;;;;5038279;28;20361;-63
2022/05/07 02:30:15;;;;;;;16.60;10.30;;;17.10;90.20;;;;;;5039586;28;20029;-61
2022/05/07 02:32:40;;;;;;;15.00;9.65;;;17.10;90.20;;;;;;5025145;28;20469;-62
2022/05/07 02:35:06;;;;;;;14.20;10.43;;;17.10;90.20;;;;;;5023456;28;20025;-63
2022/05/07 02:37:32;;;;;;;14.40;9.90;;;17.10;90.20;;;;;;5041917;28;20036;-61
2022/05/07 02:39:57;;;;;;;17.38;10.80;;;17.10;90.20;;;;;;5038242;28;20041;-61
2022/05/07 02:42:39;;;;;;;16.13;9.75;;;17.00;90.20;;;;;;5038523;28;20040;-61
2022/05/07 02:45:09;;;;;;;15.95;10.40;;;17.10;90.20;;;;;;5026929;28;20024;-61
2022/05/07 02:47:39;;;;;;;15.85;10.10;;;17.00;90.20;;;;;;5041926;28;20424;-62
2022/05/07 02:50:05;;;;;;;23.05;9.48;;;17.00;90.20;;;;;;5041441;28;20017;-61
2022/05/07 02:52:33;;;;;;;20.30;9.38;;;17.00;90.30;;;;;;5022266;28;20439;-63
2022/05/07 02:55:03;;;;;;;16.25;10.00;;;17.00;90.30;;;;;;5023193;28;20086;-62
2022/05/07 02:57:28;;;;;;;17.42;9.65;;;17.00;90.20;;;;;;5023914;28;20041;-61
2022/05/07 02:59:54;;;;;;;14.30;9.30;;;17.00;90.20;;;;;;5023038;28;20029;-62
2022/05/07 03:02:19;;;;;;;15.15;9.63;;;17.00;90.30;;;;;;5040271;28;20040;-63
2022/05/07 03:04:47;;;;;;;16.55;10.63;;;17.00;90.40;;;;;;5040829;28;20112;-62
2022/05/07 03:07:13;;;;;;;22.95;11.63;;;17.00;90.50;;;;;;5040449;28;20032;-62
2022/05/07 03:09:38;;;;;;;11.80;9.57;;;16.90;90.50;;;;;;5024232;28;20036;-63
2022/05/07 03:12:04;;;;;;;19.95;9.95;;;17.00;90.50;;;;;;5041156;28;20037;-61
2022/05/07 03:14:31;;;;;;;16.15;10.10;;;16.90;90.40;;;;;;5042498;28;20164;-62
2022/05/07 03:16:56;;;;;;;14.95;9.82;;;16.90;90.40;;;;;;5037457;28;20032;-61
2022/05/07 03:19:22;;;;;;;11.85;9.02;;;16.90;90.50;;;;;;5020194;28;20120;-63
2022/05/07 03:21:47;;;;;;;14.48;9.38;;;16.90;90.50;;;;;;5011159;28;20404;-61
2022/05/07 03:24:13;;;;;;;13.05;9.48;;;16.90;90.50;;;;;;5043692;28;20033;-62
2022/05/07 03:26:38;;;;;;;14.25;9.38;;;16.90;90.60;;;;;;5042627;28;20476;-60
2022/05/07 03:29:04;;;;;;;13.15;9.60;;;16.90;90.50;;;;;;5024100;28;20176;-63
2022/05/07 03:31:30;;;;;;;14.23;8.88;;;16.90;90.50;;;;;;5040724;28;20045;-62
2022/05/07 03:33:55;;;;;;;10.52;9.15;;;16.80;90.50;;;;;;5042885;28;20347;-61
2022/05/07 03:36:21;;;;;;;16.27;9.40;;;16.80;90.50;;;;;;5044502;28;20013;-61
2022/05/07 03:38:46;;;;;;;15.40;9.85;;;16.90;90.60;;;;;;5027189;28;20040;-63
2022/05/07 03:41:12;;;;;;;15.45;9.30;;;16.80;90.60;;;;;;5043527;28;20053;-62
2022/05/07 03:43:38;;;;;;;13.57;9.70;;;16.80;90.60;;;;;;5041028;28;20033;-62
2022/05/07 03:46:04;;;;;;;14.48;9.63;;;16.80;90.50;;;;;;5024032;28;20037;-61
2022/05/07 03:48:30;;;;;;;16.63;10.65;;;16.80;90.50;;;;;;5026283;28;20033;-61
2022/05/07 03:50:56;;;;;;;13.70;9.20;;;16.80;90.50;;;;;;5044683;28;20488;-63
2022/05/07 03:53:30;;;;;;;17.50;9.82;;;16.80;90.50;;;;;;5038937;28;20489;-61
2022/05/07 03:55:59;;;;;;;14.68;10.10;;;16.80;90.50;;;;;;5041449;28;20453;-60
2022/05/07 03:58:26;;;;;;;13.43;9.38;;;16.80;90.50;;;;;;5039204;28;20041;-62
2022/05/07 04:00:52;;;;;;;18.40;9.73;;;16.80;90.50;;;;;;5043560;28;20024;-62
2022/05/07 04:03:18;;;;;;;16.92;9.80;;;16.70;90.50;;;;;;5025653;28;20029;-61
2022/05/07 04:05:43;;;;;;;17.83;9.52;;;16.70;90.50;;;;;;5042950;28;20390;-61
2022/05/07 04:08:09;;;;;;;18.08;10.23;;;16.70;90.50;;;;;;5007235;28;20725;-62
2022/05/07 04:10:35;;;;;;;16.20;9.75;;;16.80;90.50;;;;;;5008427;28;20144;-62
2022/05/07 04:13:00;;;;;;;17.50;9.38;;;16.70;90.50;;;;;;5043171;28;20035;-62
2022/05/07 04:15:26;;;;;;;17.45;10.32;;;16.70;90.50;;;;;;5043786;28;20055;-62
2022/05/07 04:17:53;;;;;;;18.92;9.32;;;16.70;90.50;;;;;;5042037;28;20479;-62
2022/05/07 04:20:18;;;;;;;14.55;9.00;;;16.70;90.50;;;;;;5044893;28;20021;-60
2022/05/07 04:22:44;;;;;;;10.82;9.25;;;16.70;90.50;;;;;;5041070;28;20666;-62
2022/05/07 04:25:10;;;;;;;12.55;9.13;;;16.60;90.40;;;;;;5024723;28;20021;-62
2022/05/07 04:27:36;;;;;;;14.60;9.15;;;16.60;90.40;;;;;;5042346;28;20024;-61
2022/05/07 04:30:02;;;;;;;12.85;9.38;;;16.60;90.40;;;;;;5039936;28;20025;-61
2022/05/07 04:32:27;;;;;;;12.02;8.00;;;16.60;90.40;;;;;;5042701;28;20029;-61
2022/05/07 04:34:55;;;;;;;14.95;9.05;;;16.60;90.50;;;;;;5041750;28;20333;-61
2022/05/07 04:37:21;;;;;;;13.43;9.15;;;16.60;90.40;;;;;;5024128;28;20469;-63
2022/05/07 04:39:47;;;;;;;12.70;8.77;;;16.50;90.40;;;;;;5040429;28;20094;-62
2022/05/07 04:42:12;;;;;;;12.50;9.13;;;16.50;90.40;;;;;;5043070;28;20032;-61
2022/05/07 04:44:38;;;;;;;11.35;8.68;;;16.50;90.30;;;;;;5021949;28;20048;-61
2022/05/07 04:47:05;;;;;;;12.30;9.00;;;16.60;90.40;;;;;;5043106;28;20377;-61
2022/05/07 04:49:31;;;;;;;11.65;8.95;;;16.50;90.30;;;;;;5039272;28;20041;-62
2022/05/07 04:51:56;;;;;;;12.32;8.82;;;16.50;90.30;;;;;;5039204;28;20032;-62
2022/05/07 04:54:22;;;;;;;11.35;9.48;;;16.50;90.30;;;;;;5040111;28;20033;-61
2022/05/07 04:56:48;;;;;;;10.93;7.88;;;16.50;90.20;;;;;;5041809;28;20154;-62
2022/05/07 04:59:14;;;;;;;14.75;8.73;;;16.50;90.20;;;;;;5041668;28;20029;-62
2022/05/07 05:01:40;;;;;;;10.85;8.00;;;16.50;90.20;;;;;;5041434;28;20024;-62
2022/05/07 05:04:05;;;;;;;10.80;8.10;;;16.50;90.20;;;;;;5022282;28;20032;-62
2022/05/07 05:06:31;;;;;;;16.80;9.18;;;16.50;90.20;;;;;;5042906;28;20025;-61
2022/05/07 05:08:56;;;;;;;14.27;8.80;;;16.50;90.20;;;;;;5024914;28;20033;-62
2022/05/07 05:11:22;;;;;;;11.38;8.25;;;16.50;90.10;;;;;;5025577;28;20130;-60
2022/05/07 05:13:47;;;;;;;14.27;8.43;;;16.50;90.00;;;;;;5021961;28;20453;-61
2022/05/07 05:16:13;;;;;;;12.40;9.13;;;16.50;90.00;;;;;;5024386;28;20511;-63
2022/05/07 05:18:38;;;;;;;16.48;8.60;;;16.50;90.00;;;;;;5022142;28;20021;-63
2022/05/07 05:21:04;;;;;;;14.98;8.95;;;16.50;90.00;;;;;;5041889;28;20029;-61
2022/05/07 05:23:30;;;;;;;9.57;7.70;;;16.50;90.00;;;;;;5038702;28;20507;-62
2022/05/07 05:25:56;;;;;;;9.65;8.10;;;16.50;90.00;;;;;;5040675;28;20025;-61
2022/05/07 05:28:21;;;;;;;12.35;7.70;;;16.50;90.00;;;;;;5022890;28;20378;-63
2022/05/07 05:30:51;;;;;;;10.35;7.78;;;16.40;89.90;;;;;;5038930;28;20102;-62
2022/05/07 05:33:20;;;;;;;12.43;8.23;;;16.40;90.00;;;;;;5042473;28;20048;-63
2022/05/07 05:35:45;;;;;;;11.10;8.07;;;16.40;89.90;;;;;;5041641;28;20057;-61
2022/05/07 05:38:11;;;;;;;9.80;6.85;;;16.40;89.80;;;;;;5024412;28;20056;-63
2022/05/07 05:40:36;;;;;;;11.55;7.97;;;16.40;89.80;;;;;;5023950;28;20064;-62
2022/05/07 05:43:02;;;;;;;12.77;7.78;;;16.40;89.80;;;;;;5039228;28;20031;-62
2022/05/07 05:45:28;;;;;;;8.00;7.20;;;16.40;89.70;;;;;;5033897;28;20380;-63
2022/05/07 05:47:54;;;;;;;10.32;7.47;;;16.40;89.70;;;;;;5039885;28;20032;-60
2022/05/07 05:50:19;;;;;;;12.45;7.93;;;16.40;89.60;;;;;;5023564;28;20021;-62
2022/05/07 05:52:45;;;;;;;14.00;7.55;;;16.40;89.60;;;;;;5038695;28;20090;-62
2022/05/07 05:55:10;;;;;;;9.75;7.32;;;16.40;89.50;;;;;;5003523;28;20041;-62
2022/05/07 05:57:36;;;;;;;10.38;7.05;;;16.40;89.30;;;;;;5022756;28;20025;-62
2022/05/07 06:00:02;;;;;;;8.85;7.10;;;16.40;89.30;;;;;;5038803;28;20036;-63
2022/05/07 06:02:27;;;;;;;9.52;7.30;;;16.40;89.30;;;;;;5040551;28;20029;-61
2022/05/07 06:04:53;;;;;;;10.60;6.97;;;16.40;89.20;;;;;;5023130;28;20083;-61
2022/05/07 06:07:19;;;;;;;11.20;6.95;;;16.40;89.10;;;;;;5032397;28;20151;-60
2022/05/07 06:09:44;;;;;;;11.13;7.28;;;16.40;89.00;;;;;;5034986;28;20124;-62
2022/05/07 06:12:10;;;;;;;9.80;7.35;;;16.40;88.90;;;;;;5022547;28;20515;-61
2022/05/07 06:14:35;;;;;;;8.70;6.63;;;16.40;88.80;;;;;;5035646;28;20025;-61
2022/05/07 06:17:01;;;;;;;12.32;6.70;;;16.40;88.70;;;;;;5037449;28;20520;-62
2022/05/07 06:19:28;;;;;;;9.07;6.60;;;16.50;88.70;;;;;;5020563;28;20120;-60
2022/05/07 06:21:53;;;;;;;7.43;6.55;;;16.40;88.60;;;;;;5039575;28;20040;-61
2022/05/07 06:29:47;;;;;;;8.38;6.60;;;16.40;88.40;;;;;;5039186;28;20112;-61
2022/05/07 06:32:14;;;;;;;15.60;7.57;;;16.40;88.40;;;;;;5039789;28;20037;-63
2022/05/07 06:34:39;;;;;;;54.22;13.82;;;16.50;88.30;;;;;;5036625;28;20052;-63
2022/05/07 06:37:05;;;;;;;42.95;11.52;;;16.50;88.00;;;;;;5023951;28;20480;-61
2022/05/07 06:39:31;;;;;;;44.70;10.45;;;16.50;87.80;;;;;;5038710;28;20054;-60
2022/05/07 06:41:57;;;;;;;37.42;9.25;;;16.50;87.70;;;;;;5024087;28;20424;-62
2022/05/07 06:44:22;;;;;;;29.73;9.68;;;16.50;87.70;;;;;;5037729;28;20068;-62
2022/05/07 06:46:49;;;;;;;33.13;9.75;;;16.50;87.60;;;;;;5036668;28;20116;-61
2022/05/07 06:49:17;;;;;;;39.50;9.23;;;16.50;87.60;;;;;;5037629;28;20555;-61
2022/05/07 06:51:43;;;;;;;34.17;9.05;;;16.50;87.70;;;;;;5024373;28;20019;-62
2022/05/07 06:54:08;;;;;;;37.67;9.77;;;16.50;87.80;;;;;;5037298;28;20128;-61
2022/05/07 06:56:34;;;;;;;31.35;9.00;;;16.50;87.80;;;;;;5042995;28;20067;-61
2022/05/07 06:59:00;;;;;;;30.88;8.73;;;16.50;87.70;;;;;;5044249;28;20029;-63
2022/05/07 07:01:26;;;;;;;20.48;7.95;;;16.50;87.30;;;;;;5043345;28;20407;-61
2022/05/07 07:03:51;;;;;;;29.58;8.57;;;16.50;87.20;;;;;;5043101;28;20546;-61
2022/05/07 07:06:17;;;;;;;30.10;9.45;;;16.50;87.10;;;;;;5043804;28;20037;-61
2022/05/07 07:08:43;;;;;;;24.83;8.23;;;16.50;86.90;;;;;;5043392;28;20044;-62
2022/05/07 07:11:08;;;;;;;27.02;7.75;;;16.50;86.80;;;;;;5044194;28;20033;-61
2022/05/07 07:13:34;;;;;;;29.20;8.30;;;16.50;86.80;;;;;;5039867;28;20512;-62
2022/05/07 07:15:59;;;;;;;29.98;8.95;;;16.50;86.70;;;;;;5043315;28;20104;-61
2022/05/07 07:18:25;;;;;;;18.95;7.78;;;16.50;86.70;;;;;;5042288;28;20017;-61
2022/05/07 07:20:50;;;;;;;30.40;8.35;;;16.50;86.90;;;;;;5044040;28;20025;-62
2022/05/07 07:23:16;;;;;;;22.15;7.38;;;16.50;86.80;;;;;;5040893;28;20122;-62
2022/05/07 07:25:42;;;;;;;18.55;7.50;;;16.50;86.40;;;;;;5040033;28;20036;-62
2022/05/07 07:28:08;;;;;;;20.75;7.43;;;16.50;86.50;;;;;;5019795;28;20049;-63
2022/05/07 07:30:33;;;;;;;16.48;6.90;;;16.50;86.20;;;;;;5032371;28;20072;-62
2022/05/07 07:32:59;;;;;;;22.75;7.68;;;16.50;86.20;;;;;;5037297;28;20040;-61
2022/05/07 07:35:25;;;;;;;15.57;7.25;;;16.50;86.20;;;;;;5043386;28;20485;-61
2022/05/07 07:37:50;;;;;;;16.38;6.82;;;16.50;86.20;;;;;;5039815;28;20033;-62
2022/05/07 07:40:16;;;;;;;23.92;7.28;;;16.50;86.30;;;;;;5032539;28;20053;-62
2022/05/07 07:42:41;;;;;;;22.52;7.43;;;16.50;86.30;;;;;;5044000;28;20108;-63
2022/05/07 07:48:07;;;;;;;;;;;16.50;86.10;;;;;;5044656;28;20132;-63
2022/05/07 07:50:34;;;;;;;19.83;7.18;;;16.50;86.10;;;;;;5041200;28;19967;-62
2022/05/07 07:53:04;;;;;;;21.73;6.88;;;16.50;86.10;;;;;;5042573;28;20048;-61
2022/05/07 07:55:30;;;;;;;19.95;7.20;;;16.50;86.20;;;;;;5024670;28;20025;-61
2022/05/07 07:57:56;;;;;;;15.00;6.45;;;16.50;86.20;;;;;;5042330;28;20029;-62
2022/05/07 08:00:22;;;;;;;19.73;6.97;;;16.60;86.40;;;;;;5024198;28;20021;-62
2022/05/07 08:02:48;;;;;;;16.48;6.50;;;16.50;86.30;;;;;;5024630;28;20025;-61
2022/05/07 08:05:14;;;;;;;16.90;6.75;;;16.60;86.50;;;;;;5039439;28;20681;-62
2022/05/07 08:13:08;;;;;;;22.67;7.75;;;16.50;86.20;;;;;;5040783;28;20146;-61
2022/05/07 08:15:33;;;;;;;29.73;7.85;;;16.40;86.10;;;;;;5040879;28;21006;-62
2022/05/07 08:17:59;;;;;;;21.20;8.95;;;16.40;86.60;;;;;;5038280;28;20049;-62
2022/05/07 08:20:24;;;;;;;38.95;7.80;;;16.40;86.60;;;;;;5038256;28;20049;-61
2022/05/07 08:22:50;;;;;;;66.97;10.50;;;16.40;86.70;;;;;;5040914;28;20161;-61
2022/05/07 08:25:16;;;;;;;27.63;8.50;;;16.40;86.80;;;;;;5042756;28;20135;-61
2022/05/07 08:27:41;;;;;;;46.15;10.88;;;16.40;86.70;;;;;;5039148;28;20063;-61
2022/05/07 08:30:07;;;;;;;50.17;10.20;;;16.40;86.90;;;;;;5039073;28;20033;-61
2022/05/07 08:32:33;;;;;;;54.22;10.85;;;16.40;87.00;;;;;;5031001;28;20046;-62
2022/05/07 08:34:58;;;;;;;108.18;14.57;;;16.30;87.10;;;;;;5038029;28;20033;-61
2022/05/07 08:37:24;;;;;;;106.93;14.27;;;16.40;87.40;;;;;;5039099;28;20043;-61
2022/05/07 08:39:49;;;;;;;90.80;13.45;;;16.40;87.50;;;;;;5041765;28;20037;-61
2022/05/07 08:42:15;;;;;;;99.93;14.50;;;16.40;87.50;;;;;;5024234;28;20101;-61
2022/05/07 08:44:41;;;;;;;96.38;13.38;;;16.40;87.70;;;;;;5040645;28;20049;-60
2022/05/07 08:47:06;;;;;;;106.93;16.75;;;16.40;87.70;;;;;;5036426;28;20089;-63
2022/05/07 08:49:32;;;;;;;118.68;14.70;;;16.40;87.70;;;;;;5039174;28;20473;-61
2022/05/07 08:51:57;;;;;;;99.28;14.68;;;16.40;87.50;;;;;;5037985;28;20036;-62
2022/05/07 08:54:23;;;;;;;114.82;15.82;;;16.40;87.50;;;;;;5027776;28;20044;-62
2022/05/07 08:56:49;;;;;;;93.25;14.73;;;16.50;87.50;;;;;;5036906;28;20105;-63
2022/05/07 08:59:14;;;;;;;112.18;15.20;;;16.50;87.50;;;;;;5016240;28;20338;-61
2022/05/07 09:01:42;;;;;;;124.25;17.98;;;16.50;87.20;;;;;;5026082;28;20527;-61
2022/05/07 09:04:11;;;;;;;131.27;16.15;;;16.60;87.20;;;;;;5028374;28;20032;-61
2022/05/07 09:06:36;;;;;;;154.27;19.20;;;16.60;87.40;;;;;;5033630;28;20025;-62
2022/05/07 09:09:05;;;;;;;122.50;16.65;;;16.60;87.60;;;;;;5025342;28;20465;-62
2022/05/07 09:11:38;;;;;;;137.18;19.38;;;16.60;87.60;;;;;;5022572;28;20037;-61
2022/05/07 09:14:05;;;;;;;165.57;19.55;;;16.60;87.90;;;;;;5035156;28;20238;-60
2022/05/07 09:16:41;;;;;;;175.07;22.85;;;16.70;88.00;;;;;;5038803;28;20025;-61
2022/05/07 09:19:30;;;;;;;166.18;21.42;;;16.70;87.90;;;;;;5038376;28;20047;-62
2022/05/07 09:22:09;;;;;;;161.35;21.58;;;16.70;87.90;;;;;;5038866;28;20100;-61
2022/05/07 09:24:35;;;;;;;155.60;20.38;;;16.80;88.70;;;;;;5033745;28;20037;-61
2022/05/07 09:27:02;;;;;;;197.63;23.50;;;16.80;88.40;;;;;;5032185;28;20037;-61
2022/05/07 09:29:27;;;;;;;153.75;20.70;;;16.80;88.30;;;;;;5038711;28;20460;-60
2022/05/07 09:31:53;;;;;;;195.45;22.52;;;16.80;87.90;;;;;;5036731;28;20049;-61
2022/05/07 09:37:17;;;;;;;259.15;30.05;;;16.90;88.20;;;;;;5032335;28;20094;-62
2022/05/07 09:39:47;;;;;;;203.73;25.25;;;17.00;88.00;;;;;;5027887;28;20477;-61
2022/05/07 09:42:18;;;;;;;172.23;22.98;;;16.90;88.10;;;;;;5023714;28;20113;-61
2022/05/07 09:44:44;;;;;;;161.82;24.30;;;17.00;88.20;;;;;;5029136;28;20021;-63
2022/05/07 09:47:12;;;;;;;146.95;22.00;;;17.00;88.00;;;;;;5032368;28;20021;-60
2022/05/07 09:52:31;;;;;;;225.55;26.92;;;17.10;88.00;;;;;;5035343;28;20075;-61
2022/05/07 09:57:41;;;;;;;182.77;24.63;;;17.20;88.40;;;;;;5016396;28;20036;-62
2022/05/07 10:00:08;;;;;;;198.65;24.13;;;17.30;88.30;;;;;;5036098;28;20047;-61
2022/05/07 10:02:54;;;;;;;232.75;26.95;;;17.30;87.90;;;;;;5021533;28;20069;-62
2022/05/07 10:05:31;;;;;;;157.15;24.20;;;17.30;87.70;;;;;;5027454;28;20186;-61
2022/05/07 10:08:25;;;;;;;169.85;23.25;;;17.40;87.70;;;;;;5026677;28;20040;-61
2022/05/07 10:10:51;;;;;;;171.45;23.83;;;17.40;87.70;;;;;;5022854;28;20779;-61
2022/05/07 10:13:17;;;;;;;152.73;22.58;;;17.40;87.60;;;;;;5022551;28;20033;-61
2022/05/07 10:15:44;;;;;;;146.70;22.83;;;17.50;87.30;;;;;;5022066;28;20605;-60
2022/05/07 10:18:14;;;;;;;196.30;26.35;;;17.50;87.20;;;;;;5027718;28;20033;-60
2022/05/07 10:20:48;;;;;;;174.20;25.02;;;17.50;87.80;;;;;;5029628;28;20033;-60
2022/05/07 10:23:15;;;;;;;167.57;25.05;;;17.60;87.80;;;;;;5028199;28;20465;-62
2022/05/07 10:25:43;;;;;;;155.68;24.35;;;17.70;87.50;;;;;;5029812;28;20041;-61
2022/05/07 10:28:14;;;;;;;200.40;28.95;;;17.70;87.30;;;;;;5015093;28;20023;-63
2022/05/07 10:30:52;;;;;;;151.55;23.58;;;17.70;87.10;;;;;;5013833;28;20164;-62
2022/05/07 10:33:18;;;;;;;187.52;25.50;;;17.80;87.20;;;;;;5029097;28;20068;-62
2022/05/07 10:35:52;;;;;;;182.32;29.58;;;17.80;87.10;;;;;;5024153;28;20025;-61
2022/05/07 10:38:26;;;;;;;166.77;23.90;;;17.90;87.00;;;;;;5011567;28;20471;-62
2022/05/07 10:40:56;;;;;;;176.07;24.50;;;17.90;87.20;;;;;;5026307;28;20116;-62
2022/05/07 10:43:29;;;;;;;178.07;26.73;;;18.00;87.10;;;;;;5030162;28;20076;-61
2022/05/07 10:45:56;;;;;;;190.90;26.67;;;18.00;87.00;;;;;;5025544;28;20127;-61
2022/05/07 10:48:22;;;;;;;152.80;25.50;;;18.00;87.30;;;;;;5009695;28;20396;-61
2022/05/07 10:50:55;;;;;;;208.43;28.92;;;18.10;86.60;;;;;;5009773;28;20037;-62
2022/05/07 10:53:21;;;;;;;173.25;26.77;;;18.10;86.60;;;;;;5030898;28;20631;-63
2022/05/07 10:55:50;;;;;;;189.57;27.55;;;18.20;86.60;;;;;;5028911;28;20508;-61
2022/05/07 10:58:25;;;;;;;171.48;26.90;;;18.20;86.60;;;;;;5027183;28;20041;-62
2022/05/07 11:00:51;;;;;;;202.38;27.65;;;18.30;86.60;;;;;;5031166;28;20033;-63
2022/05/07 11:03:26;;;;;;;185.70;26.77;;;18.30;86.60;;;;;;5013011;28;20095;-62
2022/05/07 11:05:57;;;;;;;217.48;27.52;;;18.30;86.60;;;;;;5017054;28;20912;-62
2022/05/07 11:08:23;;;;;;;165.20;25.58;;;18.40;86.60;;;;;;5034820;28;20033;-61
2022/05/07 11:10:48;;;;;;;195.95;28.75;;;18.40;86.80;;;;;;5017251;28;20053;-60
2022/05/07 11:13:15;;;;;;;201.50;28.75;;;18.50;87.10;;;;;;5032399;28;20029;-62
2022/05/07 11:15:41;;;;;;;178.90;27.83;;;18.60;87.20;;;;;;5018911;28;20618;-63
2022/05/07 11:18:13;;;;;;;196.57;28.38;;;18.70;86.70;;;;;;5027108;28;20033;-62
2022/05/07 11:20:41;;;;;;;212.73;29.40;;;18.70;86.50;;;;;;5012028;28;20932;-63
2022/05/07 11:23:06;;;;;;;195.13;30.10;;;18.80;86.20;;;;;;5008999;28;20064;-63
2022/05/07 11:25:32;;;;;;;210.05;30.23;;;18.80;85.70;;;;;;5018707;28;20197;-61
2022/05/07 11:27:58;;;;;;;192.73;29.48;;;18.90;85.80;;;;;;4996345;28;20526;-61
2022/05/07 11:30:23;;;;;;;177.88;31.23;;;19.00;85.60;;;;;;5019708;28;20050;-61
2022/05/07 11:32:49;;;;;;;222.65;30.98;;;18.90;85.50;;;;;;5023130;28;20052;-59
2022/05/07 11:35:15;;;;;;;186.65;28.58;;;19.00;85.60;;;;;;5022563;28;20065;-62
2022/05/07 11:37:44;;;;;;;168.80;28.45;;;19.00;85.60;;;;;;5004558;28;20049;-61
2022/05/07 11:40:11;;;;;;;172.27;26.70;;;19.00;85.40;;;;;;5027535;28;20025;-61
2022/05/07 11:42:40;;;;;;;214.05;28.02;;;19.10;85.50;;;;;;5017763;28;20162;-61
2022/05/07 11:47:55;;;;;;;200.93;28.00;;;19.10;85.00;;;;;;5025220;28;20098;-60
2022/05/07 11:50:22;;;;;;;200.82;29.98;;;19.10;85.00;;;;;;5023553;28;20083;-62
2022/05/07 11:52:47;;;;;;;191.68;26.80;;;19.20;84.90;;;;;;5028648;28;20017;-60
2022/05/07 11:55:13;;;;;;;193.95;27.60;;;19.20;84.60;;;;;;5018366;28;20724;-63
2022/05/07 11:57:39;;;;;;;163.98;25.55;;;19.30;84.50;;;;;;5030340;28;20064;-61
2022/05/07 12:00:19;;;;;;;179.65;26.27;;;19.30;84.40;;;;;;5023270;28;20022;-62
2022/05/07 12:02:53;;;;;;;175.18;24.98;;;19.40;84.00;;;;;;5021125;28;20022;-62
2022/05/07 12:05:19;;;;;;;158.05;25.55;;;19.50;83.80;;;;;;5027931;28;20095;-60
2022/05/07 12:07:48;;;;;;;155.05;24.60;;;19.60;83.40;;;;;;4997403;28;20041;-60
2022/05/07 12:10:17;;;;;;;167.50;25.88;;;19.70;83.00;;;;;;5028209;28;20066;-60
2022/05/07 12:12:44;;;;;;;155.13;25.27;;;19.70;82.50;;;;;;5029371;28;20033;-62
2022/05/07 12:15:10;;;;;;;164.52;27.02;;;19.80;82.40;;;;;;5032214;28;20052;-61
2022/05/07 12:17:54;;;;;;;211.10;28.15;;;19.80;82.00;;;;;;5031146;28;20492;-60
2022/05/07 12:20:23;;;;;;;183.93;25.40;;;19.90;82.00;;;;;;5034332;28;20083;-61
2022/05/07 12:31:02;;;;;;;110.75;22.92;;;20.10;81.20;;;;;;5027258;28;20738;-61
2022/05/07 12:33:29;;;;;;;191.18;26.80;;;20.10;81.40;;;;;;5025875;28;20464;-60
2022/05/07 12:35:54;;;;;;;147.02;23.90;;;20.10;81.10;;;;;;5021774;28;20155;-61
2022/05/07 12:38:20;;;;;;;129.00;22.65;;;20.20;81.00;;;;;;5031637;28;20151;-60
2022/05/07 12:40:45;;;;;;;161.10;23.73;;;20.20;80.90;;;;;;5026081;28;20546;-61
2022/05/07 12:43:11;;;;;;;152.05;23.92;;;20.20;80.50;;;;;;5006890;28;20169;-60
2022/05/07 12:45:36;;;;;;;167.27;22.08;;;20.30;81.20;;;;;;5027065;28;20068;-62
2022/05/07 12:48:02;;;;;;;209.85;26.50;;;20.30;80.70;;;;;;5023156;28;20567;-61
2022/05/07 12:50:27;;;;;;;160.60;23.70;;;20.40;80.40;;;;;;5027428;28;20688;-61
2022/05/07 12:52:53;;;;;;;149.70;22.48;;;20.40;80.00;;;;;;5028289;28;20105;-62
2022/05/07 12:55:19;;;;;;;160.02;23.35;;;20.50;79.40;;;;;;5030105;28;20104;-61
2022/05/07 12:57:44;;;;;;;151.50;23.17;;;20.50;79.10;;;;;;5029409;28;20052;-62
2022/05/07 13:00:10;;;;;;;149.60;23.50;;;20.60;78.90;;;;;;5030764;28;20112;-62
2022/05/07 13:02:37;;;;;;;151.38;23.75;;;20.70;78.70;;;;;;5025608;28;20190;-60
2022/05/07 13:05:03;;;;;;;201.07;26.73;;;20.80;78.70;;;;;;5028266;28;20453;-61